sensor_id;sensor_type;location;lat;lon;timestamp;pressure;altitude;pressure_sealevel;temperature;humidity
40612;BME280;26317;44.894;20.286;2023-03-04T00:02:53;101032.34;;;8.10;100.00
40612;BME280;26317;44.894;20.286;2023-03-04T00:05:37;101024.09;;;8.12;100.00
40612;BME280;26317;44.894;20.286;2023-03-04T00:08:17;101027.66;;;8.17;100.00
40612;BME280;26317;44.894;20.286;2023-03-04T00:11:04;101027.09;;;8.15;100.00
40612;BME280;26317;44.894;20.286;2023-03-04T00:13:40;101030.09;;;8.19;100.00
40612;BME280;26317;44.894;20.286;2023-03-04T00:16:18;101027.59;;;8.12;100.00
40612;BME280;26317;44.894;20.286;2023-03-04T00:19:01;101021.09;;;8.08;100.00
40612;BME280;26317;44.894;20.286;2023-03-04T00:21:38;101032.75;;;8.02;100.00
40612;BME280;26317;44.894;20.286;2023-03-04T00:24:11;101025.84;;;7.90;100.00
40612;BME280;26317;44.894;20.286;2023-03-04T00:27:06;101020.75;;;7.88;100.00
40612;BME280;26317;44.894;20.286;2023-03-04T00:29:44;101014.28;;;7.84;100.00
40612;BME280;26317;44.894;20.286;2023-03-04T00:32:28;101020.09;;;7.81;100.00
40612;BME280;26317;44.894;20.286;2023-03-04T00:35:08;101015.81;;;7.80;100.00
40612;BME280;26317;44.894;20.286;2023-03-04T00:37:44;100987.78;;;7.66;100.00
40612;BME280;26317;44.894;20.286;2023-03-04T00:40:36;101015.81;;;7.80;100.00
40612;BME280;26317;44.894;20.286;2023-03-04T00:43:14;101005.19;;;7.85;100.00
40612;BME280;26317;44.894;20.286;2023-03-04T00:46:10;101005.56;;;7.89;100.00
40612;BME280;26317;44.894;20.286;2023-03-04T00:48:45;100995.09;;;7.87;100.00
40612;BME280;26317;44.894;20.286;2023-03-04T00:51:27;100982.69;;;7.81;100.00
40612;BME280;26317;44.894;20.286;2023-03-04T00:54:16;100995.91;;;7.88;100.00
40612;BME280;26317;44.894;20.286;2023-03-04T00:56:58;101006.91;;;7.91;100.00
40612;BME280;26317;44.894;20.286;2023-03-04T00:59:39;101006.59;;;7.88;100.00
40612;BME280;26317;44.894;20.286;2023-03-04T01:02:17;101001.59;;;7.91;100.00
40612;BME280;26317;44.894;20.286;2023-03-04T01:04:52;101001.59;;;7.91;100.00
40612;BME280;26317;44.894;20.286;2023-03-04T01:07:32;101001.34;;;7.93;100.00
40612;BME280;26317;44.894;20.286;2023-03-04T01:10:11;100995.19;;;7.92;100.00
40612;BME280;26317;44.894;20.286;2023-03-04T01:12:53;101004.16;;;7.86;100.00
40612;BME280;26317;44.894;20.286;2023-03-04T01:15:52;101003.50;;;7.79;100.00
40612;BME280;26317;44.894;20.286;2023-03-04T01:18:28;101005.53;;;7.72;100.00
40612;BME280;26317;44.894;20.286;2023-03-04T01:21:06;101011.19;;;7.75;100.00
40612;BME280;26317;44.894;20.286;2023-03-04T01:23:39;101007.13;;;7.73;100.00
40612;BME280;26317;44.894;20.286;2023-03-04T01:26:22;100996.03;;;7.64;100.00
40612;BME280;26317;44.894;20.286;2023-03-04T01:28:59;100996.19;;;7.58;100.00
40612;BME280;26317;44.894;20.286;2023-03-04T01:31:43;101002.34;;;7.58;100.00
40612;BME280;26317;44.894;20.286;2023-03-04T01:34:14;100997.72;;;7.54;100.00
40612;BME280;26317;44.894;20.286;2023-03-04T01:36:56;101003.88;;;7.54;100.00
40612;BME280;26317;44.894;20.286;2023-03-04T01:39:37;101003.38;;;7.57;100.00
40612;BME280;26317;44.894;20.286;2023-03-04T01:42:21;100997.91;;;7.64;100.00
40612;BME280;26317;44.894;20.286;2023-03-04T01:45:02;100981.13;;;7.52;100.00
40612;BME280;26317;44.894;20.286;2023-03-04T01:47:50;100983.88;;;7.57;100.00
40612;BME280;26317;44.894;20.286;2023-03-04T01:50:34;100988.41;;;7.56;100.00
40612;BME280;26317;44.894;20.286;2023-03-04T01:53:16;100985.19;;;7.54;100.00
40612;BME280;26317;44.894;20.286;2023-03-04T01:55:56;100984.16;;;7.44;100.00
40612;BME280;26317;44.894;20.286;2023-03-04T01:58:35;100983.94;;;7.45;100.00
40612;BME280;26317;44.894;20.286;2023-03-04T02:01:19;100964.06;;;7.24;100.00
40612;BME280;26317;44.894;20.286;2023-03-04T02:04:03;100974.84;;;7.29;100.00
40612;BME280;26317;44.894;20.286;2023-03-04T02:06:38;100979.00;;;7.37;100.00
40612;BME280;26317;44.894;20.286;2023-03-04T02:09:20;100977.13;;;7.37;100.00
40612;BME280;26317;44.894;20.286;2023-03-04T02:11:57;100979.00;;;7.37;100.00
40612;BME280;26317;44.894;20.286;2023-03-04T02:14:32;100973.50;;;7.44;100.00
40612;BME280;26317;44.894;20.286;2023-03-04T02:17:10;100971.53;;;7.39;100.00
40612;BME280;26317;44.894;20.286;2023-03-04T02:19:50;100976.66;;;7.40;100.00
40612;BME280;26317;44.894;20.286;2023-03-04T02:22:42;100972.03;;;7.36;100.00
40612;BME280;26317;44.894;20.286;2023-03-04T02:25:30;100962.97;;;7.37;100.00
40612;BME280;26317;44.894;20.286;2023-03-04T02:28:14;100961.50;;;7.29;100.00
40612;BME280;26317;44.894;20.286;2023-03-04T02:30:50;100957.00;;;7.30;100.00
40612;BME280;26317;44.894;20.286;2023-03-04T02:33:29;100952.91;;;7.27;100.00
40612;BME280;26317;44.894;20.286;2023-03-04T02:36:19;100961.88;;;7.21;100.00
40612;BME280;26317;44.894;20.286;2023-03-04T02:39:01;100961.06;;;7.21;100.00
40612;BME280;26317;44.894;20.286;2023-03-04T02:41:38;100961.97;;;7.26;100.00
40612;BME280;26317;44.894;20.286;2023-03-04T02:44:28;100961.97;;;7.26;100.00
40612;BME280;26317;44.894;20.286;2023-03-04T02:47:03;100969.47;;;7.41;100.00
40612;BME280;26317;44.894;20.286;2023-03-04T02:49:39;100973.47;;;7.55;100.00
40612;BME280;26317;44.894;20.286;2023-03-04T02:52:26;100973.69;;;7.54;100.00
40612;BME280;26317;44.894;20.286;2023-03-04T02:55:16;100973.19;;;7.57;100.00
40612;BME280;26317;44.894;20.286;2023-03-04T02:57:53;100975.03;;;7.68;100.00
40612;BME280;26317;44.894;20.286;2023-03-04T03:00:45;100976.47;;;7.75;100.00
40612;BME280;26317;44.894;20.286;2023-03-04T03:03:16;100945.56;;;7.63;100.00
40612;BME280;26317;44.894;20.286;2023-03-04T03:05:53;100963.69;;;7.77;100.00
40612;BME280;26317;44.894;20.286;2023-03-04T03:08:27;100965.16;;;7.85;100.00
40612;BME280;26317;44.894;20.286;2023-03-04T03:11:00;100959.97;;;7.78;100.00
40612;BME280;26317;44.894;20.286;2023-03-04T03:13:41;100975.09;;;7.90;100.00
40612;BME280;26317;44.894;20.286;2023-03-04T03:16:26;100970.44;;;7.97;100.00
40612;BME280;26317;44.894;20.286;2023-03-04T03:19:04;100947.75;;;7.82;100.00
40612;BME280;26317;44.894;20.286;2023-03-04T03:21:55;100980.13;;;8.03;100.00
40612;BME280;26317;44.894;20.286;2023-03-04T03:24:30;100977.78;;;8.06;100.00
40612;BME280;26317;44.894;20.286;2023-03-04T03:27:13;100972.19;;;8.08;100.00
40612;BME280;26317;44.894;20.286;2023-03-04T03:29:51;100974.06;;;8.07;100.00
40612;BME280;26317;44.894;20.286;2023-03-04T03:32:48;100969.63;;;7.96;100.00
40612;BME280;26317;44.894;20.286;2023-03-04T03:35:23;100956.59;;;7.83;100.00
40612;BME280;26317;44.894;20.286;2023-03-04T03:37:56;100972.44;;;7.90;100.00
40612;BME280;26317;44.894;20.286;2023-03-04T03:40:31;100981.84;;;7.92;100.00
40612;BME280;26317;44.894;20.286;2023-03-04T03:43:08;100969.22;;;7.88;100.00
40612;BME280;26317;44.894;20.286;2023-03-04T03:45:43;100970.50;;;7.85;100.00
40612;BME280;26317;44.894;20.286;2023-03-04T03:48:32;100984.31;;;7.82;100.00
40612;BME280;26317;44.894;20.286;2023-03-04T03:51:08;100980.63;;;7.83;100.00
40612;BME280;26317;44.894;20.286;2023-03-04T03:53:41;100984.06;;;7.67;100.00
40612;BME280;26317;44.894;20.286;2023-03-04T03:56:26;100981.31;;;7.62;100.00
40612;BME280;26317;44.894;20.286;2023-03-04T03:59:02;100976.78;;;7.62;100.00
40612;BME280;26317;44.894;20.286;2023-03-04T04:01:35;100977.72;;;7.56;100.00
40612;BME280;26317;44.894;20.286;2023-03-04T04:04:11;100944.06;;;7.38;100.00
40612;BME280;26317;44.894;20.286;2023-03-04T04:06:46;100973.31;;;7.62;100.00
40612;BME280;26317;44.894;20.286;2023-03-04T04:09:28;100967.78;;;7.68;100.00
40612;BME280;26317;44.894;20.286;2023-03-04T04:12:06;100968.16;;;7.72;100.00
40612;BME280;26317;44.894;20.286;2023-03-04T04:14:50;100963.94;;;7.76;100.00
40612;BME280;26317;44.894;20.286;2023-03-04T04:17:29;100963.69;;;7.77;100.00
40612;BME280;26317;44.894;20.286;2023-03-04T04:20:17;100945.25;;;7.76;100.00
40612;BME280;26317;44.894;20.286;2023-03-04T04:22:56;100957.41;;;7.83;100.00
40612;BME280;26317;44.894;20.286;2023-03-04T04:25:34;100924.84;;;7.70;100.00
40612;BME280;26317;44.894;20.286;2023-03-04T04:28:07;100951.31;;;7.88;100.00
40612;BME280;26317;44.894;20.286;2023-03-04T04:30:52;100933.59;;;7.82;100.00
40612;BME280;26317;44.894;20.286;2023-03-04T04:33:24;100942.41;;;7.82;100.00
40612;BME280;26317;44.894;20.286;2023-03-04T04:36:13;100937.66;;;7.84;100.00
40612;BME280;26317;44.894;20.286;2023-03-04T04:38:51;100938.94;;;7.82;100.00
40612;BME280;26317;44.894;20.286;2023-03-04T04:41:29;100948.66;;;7.88;100.00
40612;BME280;26317;44.894;20.286;2023-03-04T04:44:03;100950.13;;;7.96;100.00
40612;BME280;26317;44.894;20.286;2023-03-04T04:46:46;100915.16;;;7.80;100.00
40612;BME280;26317;44.894;20.286;2023-03-04T04:49:24;100949.63;;;7.99;100.00
40612;BME280;26317;44.894;20.286;2023-03-04T04:52:11;100938.78;;;7.89;100.00
40612;BME280;26317;44.894;20.286;2023-03-04T04:54:45;100931.81;;;7.88;100.00
40612;BME280;26317;44.894;20.286;2023-03-04T04:57:41;100924.53;;;7.83;100.00
40612;BME280;26317;44.894;20.286;2023-03-04T05:00:21;100939.50;;;7.84;100.00
40612;BME280;26317;44.894;20.286;2023-03-04T05:02:59;100947.03;;;7.87;100.00
40612;BME280;26317;44.894;20.286;2023-03-04T05:05:42;100944.38;;;7.87;100.00
40612;BME280;26317;44.894;20.286;2023-03-04T05:08:18;100946.06;;;7.93;100.00
40612;BME280;26317;44.894;20.286;2023-03-04T05:10:54;100939.94;;;7.93;100.00
40612;BME280;26317;44.894;20.286;2023-03-04T05:13:43;100948.06;;;7.86;100.00
40612;BME280;26317;44.894;20.286;2023-03-04T05:16:17;100951.97;;;7.78;100.00
40612;BME280;26317;44.894;20.286;2023-03-04T05:19:01;100904.69;;;7.46;100.00
40612;BME280;26317;44.894;20.286;2023-03-04T05:21:36;100945.06;;;7.66;100.00
40612;BME280;26317;44.894;20.286;2023-03-04T05:24:21;100949.88;;;7.64;100.00
40612;BME280;26317;44.894;20.286;2023-03-04T05:26:55;100943.44;;;7.65;100.00
40612;BME280;26317;44.894;20.286;2023-03-04T05:29:36;100950.25;;;7.72;100.00
40612;BME280;26317;44.894;20.286;2023-03-04T05:32:13;100944.34;;;7.70;100.00
40612;BME280;26317;44.894;20.286;2023-03-04T05:34:50;100955.25;;;7.69;100.00
40612;BME280;26317;44.894;20.286;2023-03-04T05:37:27;100949.91;;;7.69;100.00
40612;BME280;26317;44.894;20.286;2023-03-04T05:40:08;100946.13;;;7.65;100.00
40612;BME280;26317;44.894;20.286;2023-03-04T05:42:44;100950.72;;;7.53;100.00
40612;BME280;26317;44.894;20.286;2023-03-04T05:45:18;100952.81;;;7.51;100.00
40612;BME280;26317;44.894;20.286;2023-03-04T05:47:54;100952.81;;;7.51;100.00
40612;BME280;26317;44.894;20.286;2023-03-04T05:50:29;100958.72;;;7.53;100.00
40612;BME280;26317;44.894;20.286;2023-03-04T05:53:08;100958.41;;;7.49;100.00
40612;BME280;26317;44.894;20.286;2023-03-04T05:55:59;100958.50;;;7.54;100.00
40612;BME280;26317;44.894;20.286;2023-03-04T05:58:39;100968.34;;;7.54;100.00
40612;BME280;26317;44.894;20.286;2023-03-04T06:01:19;100969.78;;;7.45;100.00
40612;BME280;26317;44.894;20.286;2023-03-04T06:03:55;100966.56;;;7.43;100.00
40612;BME280;26317;44.894;20.286;2023-03-04T06:06:36;100967.00;;;7.39;100.00
40612;BME280;26317;44.894;20.286;2023-03-04T06:09:16;100965.75;;;7.42;100.00
40612;BME280;26317;44.894;20.286;2023-03-04T06:11:52;100968.75;;;7.46;100.00
40612;BME280;26317;44.894;20.286;2023-03-04T06:14:30;100969.78;;;7.45;100.00
40612;BME280;26317;44.894;20.286;2023-03-04T06:17:03;100966.41;;;7.49;100.00
40612;BME280;26317;44.894;20.286;2023-03-04T06:19:40;100965.78;;;7.59;100.00
40612;BME280;26317;44.894;20.286;2023-03-04T06:22:15;100963.22;;;7.64;100.00
40612;BME280;26317;44.894;20.286;2023-03-04T06:24:55;100959.72;;;7.63;100.00
40612;BME280;26317;44.894;20.286;2023-03-04T06:27:40;100969.69;;;7.68;100.00
40612;BME280;26317;44.894;20.286;2023-03-04T06:30:22;100958.59;;;7.59;100.00
40612;BME280;26317;44.894;20.286;2023-03-04T06:32:58;100976.63;;;7.69;100.00
40612;BME280;26317;44.894;20.286;2023-03-04T06:35:35;100967.16;;;7.78;100.00
40612;BME280;26317;44.894;20.286;2023-03-04T06:38:13;100973.09;;;7.80;100.00
40612;BME280;26317;44.894;20.286;2023-03-04T06:41:11;100980.53;;;7.78;100.00
40612;BME280;26317;44.894;20.286;2023-03-04T06:43:45;100948.22;;;7.63;100.00
40612;BME280;26317;44.894;20.286;2023-03-04T06:46:18;100977.34;;;7.81;100.00
40612;BME280;26317;44.894;20.286;2023-03-04T06:49:01;100988.63;;;7.83;100.00
40612;BME280;26317;44.894;20.286;2023-03-04T06:51:41;100974.63;;;7.76;100.00
40612;BME280;26317;44.894;20.286;2023-03-04T06:54:14;100977.13;;;7.82;100.00
40612;BME280;26317;44.894;20.286;2023-03-04T06:56:49;100982.38;;;7.77;100.00
40612;BME280;26317;44.894;20.286;2023-03-04T06:59:22;100976.63;;;7.69;100.00
40612;BME280;26317;44.894;20.286;2023-03-04T07:02:00;100985.75;;;7.73;100.00
40612;BME280;26317;44.894;20.286;2023-03-04T07:04:40;100986.13;;;7.76;100.00
40612;BME280;26317;44.894;20.286;2023-03-04T07:07:16;100987.16;;;7.75;100.00
40612;BME280;26317;44.894;20.286;2023-03-04T07:09:54;100977.75;;;7.73;100.00
40612;BME280;26317;44.894;20.286;2023-03-04T07:12:30;100977.75;;;7.73;100.00
40612;BME280;26317;44.894;20.286;2023-03-04T07:15:08;100976.72;;;7.74;100.00
40612;BME280;26317;44.894;20.286;2023-03-04T07:17:55;100983.19;;;7.78;100.00
40612;BME280;26317;44.894;20.286;2023-03-04T07:20:50;100974.22;;;7.84;100.00
40612;BME280;26317;44.894;20.286;2023-03-04T07:23:28;100981.53;;;7.89;100.00
40612;BME280;26317;44.894;20.286;2023-03-04T07:26:06;100945.66;;;7.68;100.00
40612;BME280;26317;44.894;20.286;2023-03-04T07:28:41;100977.31;;;7.93;100.00
40612;BME280;26317;44.894;20.286;2023-03-04T07:31:26;100981.13;;;7.97;100.00
40612;BME280;26317;44.894;20.286;2023-03-04T07:34:13;100984.75;;;8.07;100.00
40612;BME280;26317;44.894;20.286;2023-03-04T07:36:50;100987.50;;;8.12;100.00
40612;BME280;26317;44.894;20.286;2023-03-04T07:39:27;100983.22;;;8.11;100.00
40612;BME280;26317;44.894;20.286;2023-03-04T07:42:08;100984.44;;;8.20;100.00
40612;BME280;26317;44.894;20.286;2023-03-04T07:44:54;100983.84;;;8.18;100.00
40612;BME280;26317;44.894;20.286;2023-03-04T07:47:37;100980.81;;;8.10;100.00
40612;BME280;26317;44.894;20.286;2023-03-04T07:50:16;100977.53;;;8.08;100.00
40612;BME280;26317;44.894;20.286;2023-03-04T07:53:02;100984.84;;;8.12;100.00
40612;BME280;26317;44.894;20.286;2023-03-04T07:55:39;100977.31;;;8.09;100.00
40612;BME280;26317;44.894;20.286;2023-03-04T07:58:26;100981.13;;;8.13;100.00
40612;BME280;26317;44.894;20.286;2023-03-04T08:01:00;100968.94;;;8.06;100.00
40612;BME280;26317;44.894;20.286;2023-03-04T08:03:47;100967.03;;;8.01;100.00
40612;BME280;26317;44.894;20.286;2023-03-04T08:06:18;100980.53;;;8.11;100.00
40612;BME280;26317;44.894;20.286;2023-03-04T08:08:55;100979.72;;;8.11;100.00
40612;BME280;26317;44.894;20.286;2023-03-04T08:11:33;100974.66;;;8.09;100.00
40612;BME280;26317;44.894;20.286;2023-03-04T08:14:07;100977.63;;;8.13;100.00
40612;BME280;26317;44.894;20.286;2023-03-04T08:16:44;100975.09;;;8.23;100.00
40612;BME280;26317;44.894;20.286;2023-03-04T08:19:30;100975.19;;;8.28;100.00
40612;BME280;26317;44.894;20.286;2023-03-04T08:22:12;100976.09;;;8.34;100.00
40612;BME280;26317;44.894;20.286;2023-03-04T08:24:44;100977.75;;;8.35;100.00
40612;BME280;26317;44.894;20.286;2023-03-04T08:30:29;100983.63;;;8.37;99.83
40612;BME280;26317;44.894;20.286;2023-03-04T08:33:12;100980.47;;;8.40;99.41
40612;BME280;26317;44.894;20.286;2023-03-04T08:35:57;100981.78;;;8.37;99.21
40612;BME280;26317;44.894;20.286;2023-03-04T08:38:33;100969.84;;;8.45;100.00
40612;BME280;26317;44.894;20.286;2023-03-04T08:41:10;100956.34;;;8.35;98.76
40612;BME280;26317;44.894;20.286;2023-03-04T08:43:51;100964.59;;;8.50;98.26
40612;BME280;26317;44.894;20.286;2023-03-04T08:46:30;100976.41;;;8.54;98.52
40612;BME280;26317;44.894;20.286;2023-03-04T08:49:12;100976.28;;;8.65;98.74
40612;BME280;26317;44.894;20.286;2023-03-04T08:51:53;100966.97;;;8.68;97.77
40612;BME280;26317;44.894;20.286;2023-03-04T08:54:31;100965.31;;;8.84;98.69
40612;BME280;26317;44.894;20.286;2023-03-04T08:57:06;100963.06;;;8.97;97.58
40612;BME280;26317;44.894;20.286;2023-03-04T08:59:42;100960.25;;;9.09;96.62
40612;BME280;26317;44.894;20.286;2023-03-04T09:02:25;100967.16;;;9.27;96.46
40612;BME280;26317;44.894;20.286;2023-03-04T09:05:02;100964.03;;;9.35;95.36
40612;BME280;26317;44.894;20.286;2023-03-04T09:07:50;100931.13;;;9.12;94.70
40612;BME280;26317;44.894;20.286;2023-03-04T09:10:21;100957.06;;;9.34;92.87
40612;BME280;26317;44.894;20.286;2023-03-04T09:13:03;100958.97;;;9.38;93.29
40612;BME280;26317;44.894;20.286;2023-03-04T09:15:45;100962.50;;;9.44;93.82
40612;BME280;26317;44.894;20.286;2023-03-04T09:18:27;100957.75;;;9.51;93.01
40612;BME280;26317;44.894;20.286;2023-03-04T09:21:02;100957.31;;;9.59;92.30
40612;BME280;26317;44.894;20.286;2023-03-04T09:23:45;100951.31;;;9.52;90.98
40612;BME280;26317;44.894;20.286;2023-03-04T09:26:23;100946.53;;;9.54;91.50
40612;BME280;26317;44.894;20.286;2023-03-04T09:29:04;100942.28;;;9.58;91.57
40612;BME280;26317;44.894;20.286;2023-03-04T09:31:44;100937.44;;;9.55;92.83
40612;BME280;26317;44.894;20.286;2023-03-04T09:34:28;100942.41;;;9.68;92.29
40612;BME280;26317;44.894;20.286;2023-03-04T09:37:03;100944.56;;;9.71;90.46
40612;BME280;26317;44.894;20.286;2023-03-04T09:39:42;100934.44;;;9.78;89.45
40612;BME280;26317;44.894;20.286;2023-03-04T09:42:29;100945.19;;;9.83;89.83
40612;BME280;26317;44.894;20.286;2023-03-04T09:45:10;100936.81;;;9.75;88.77
40612;BME280;26317;44.894;20.286;2023-03-04T09:47:50;100939.53;;;9.80;89.17
40612;BME280;26317;44.894;20.286;2023-03-04T09:50:50;100908.13;;;9.70;87.85
40612;BME280;26317;44.894;20.286;2023-03-04T09:53:35;100936.69;;;9.91;88.66
40612;BME280;26317;44.894;20.286;2023-03-04T09:56:33;100935.16;;;10.00;87.83
40612;BME280;26317;44.894;20.286;2023-03-04T09:59:24;100943.03;;;9.80;87.88
40612;BME280;26317;44.894;20.286;2023-03-04T10:02:25;100935.88;;;9.91;88.05
40612;BME280;26317;44.894;20.286;2023-03-04T10:05:16;100931.31;;;9.91;88.16
40612;BME280;26317;44.894;20.286;2023-03-04T10:08:05;100934.53;;;9.88;86.60
40612;BME280;26317;44.894;20.286;2023-03-04T10:10:49;100931.91;;;9.93;87.48
40612;BME280;26317;44.894;20.286;2023-03-04T10:13:42;100918.75;;;9.92;87.10
40612;BME280;26317;44.894;20.286;2023-03-04T10:16:33;100926.53;;;9.93;87.74
40612;BME280;26317;44.894;20.286;2023-03-04T10:19:34;100922.28;;;9.97;88.73
40612;BME280;26317;44.894;20.286;2023-03-04T10:22:35;100933.00;;;10.02;86.89
40612;BME280;26317;44.894;20.286;2023-03-04T10:25:27;100918.25;;;10.00;86.83
40612;BME280;26317;44.894;20.286;2023-03-04T10:28:25;100920.72;;;10.06;87.25
40612;BME280;26317;44.894;20.286;2023-03-04T10:31:11;100914.09;;;10.14;85.14
40612;BME280;26317;44.894;20.286;2023-03-04T10:33:58;100908.59;;;10.31;85.19
40612;BME280;26317;44.894;20.286;2023-03-04T10:36:50;100904.31;;;10.40;82.19
40612;BME280;26317;44.894;20.286;2023-03-04T10:39:34;100896.38;;;10.55;83.70
40612;BME280;26317;44.894;20.286;2023-03-04T10:42:25;100901.22;;;10.63;82.48
40612;BME280;26317;44.894;20.286;2023-03-04T10:45:19;100881.38;;;10.69;84.12
40612;BME280;26317;44.894;20.286;2023-03-04T10:48:03;100884.66;;;10.81;81.88
40612;BME280;26317;44.894;20.286;2023-03-04T10:50:43;100880.38;;;10.90;79.66
40612;BME280;26317;44.894;20.286;2023-03-04T10:53:33;100880.94;;;10.92;82.48
40612;BME280;26317;44.894;20.286;2023-03-04T10:56:37;100870.19;;;10.82;78.67
40612;BME280;26317;44.894;20.286;2023-03-04T10:59:34;100852.19;;;10.78;79.66
40612;BME280;26317;44.894;20.286;2023-03-04T11:02:31;100849.00;;;10.91;79.55
40612;BME280;26317;44.894;20.286;2023-03-04T11:05:24;100865.94;;;11.01;78.82
40612;BME280;26317;44.894;20.286;2023-03-04T11:08:00;100824.31;;;10.84;76.81
40612;BME280;26317;44.894;20.286;2023-03-04T11:10:40;100854.69;;;11.10;76.29
40612;BME280;26317;44.894;20.286;2023-03-04T11:13:18;100844.75;;;11.05;78.43
40612;BME280;26317;44.894;20.286;2023-03-04T11:15:59;100849.31;;;11.15;77.35
40612;BME280;26317;44.894;20.286;2023-03-04T11:18:40;100838.03;;;11.13;77.97
40612;BME280;26317;44.894;20.286;2023-03-04T11:24:12;100817.13;;;11.30;77.64
40612;BME280;26317;44.894;20.286;2023-03-04T11:27:04;100813.88;;;11.33;78.40
40612;BME280;26317;44.894;20.286;2023-03-04T11:29:45;100812.81;;;11.34;78.05
40612;BME280;26317;44.894;20.286;2023-03-04T11:32:26;100815.22;;;11.40;78.02
40612;BME280;26317;44.894;20.286;2023-03-04T11:35:14;100816.03;;;11.41;77.30
40612;BME280;26317;44.894;20.286;2023-03-04T11:38:04;100809.59;;;11.47;78.08
40612;BME280;26317;44.894;20.286;2023-03-04T11:40:43;100801.50;;;11.57;77.88
40612;BME280;26317;44.894;20.286;2023-03-04T11:43:27;100790.25;;;11.60;75.20
40612;BME280;26317;44.894;20.286;2023-03-04T11:56:02;100786.50;;;11.46;75.96
40612;BME280;26317;44.894;20.286;2023-03-04T11:58:49;100781.13;;;11.46;75.66
40612;BME280;26317;44.894;20.286;2023-03-04T12:01:42;100784.34;;;11.38;72.16
40612;BME280;26317;44.894;20.286;2023-03-04T12:04:29;100777.66;;;11.35;72.95
40612;BME280;26317;44.894;20.286;2023-03-04T12:07:17;100785.72;;;11.35;73.98
40612;BME280;26317;44.894;20.286;2023-03-04T12:10:03;100774.69;;;11.37;74.65
40612;BME280;26317;44.894;20.286;2023-03-04T12:13:15;100775.22;;;11.34;74.20
40612;BME280;26317;44.894;20.286;2023-03-04T12:16:10;100773.88;;;11.31;73.81
40612;BME280;26317;44.894;20.286;2023-03-04T12:18:59;100765.03;;;11.21;73.59
40612;BME280;26317;44.894;20.286;2023-03-04T12:22:08;100760.47;;;11.21;73.42
40612;BME280;26317;44.894;20.286;2023-03-04T12:25:06;100740.34;;;11.14;71.78
40612;BME280;26317;44.894;20.286;2023-03-04T12:27:51;100741.94;;;11.35;73.54
40612;BME280;26317;44.894;20.286;2023-03-04T12:30:44;100747.28;;;11.40;73.14
40612;BME280;26317;44.894;20.286;2023-03-04T12:33:31;100747.81;;;11.32;73.32
40612;BME280;26317;44.894;20.286;2023-03-04T12:36:27;100747.81;;;11.37;72.72
40612;BME280;26317;44.894;20.286;2023-03-04T12:39:25;100749.97;;;11.40;71.22
40612;BME280;26317;44.894;20.286;2023-03-04T12:42:20;100744.06;;;11.38;72.56
40612;BME280;26317;44.894;20.286;2023-03-04T12:45:17;100739.75;;;11.47;69.59
40612;BME280;26317;44.894;20.286;2023-03-04T12:48:16;100729.53;;;11.54;71.77
40612;BME280;26317;44.894;20.286;2023-03-04T12:51:10;100721.41;;;11.69;71.29
40612;BME280;26317;44.894;20.286;2023-03-04T12:53:49;100711.75;;;11.83;68.99
40612;BME280;26317;44.894;20.286;2023-03-04T12:56:34;100721.59;;;12.03;64.51
40612;BME280;26317;44.894;20.286;2023-03-04T12:59:29;100715.41;;;12.03;63.26
40612;BME280;26317;44.894;20.286;2023-03-04T13:05:36;100709.38;;;12.31;64.20
40612;BME280;26317;44.894;20.286;2023-03-04T13:08:28;100711.41;;;12.49;60.62
40612;BME280;26317;44.894;20.286;2023-03-04T13:14:32;100706.19;;;12.68;60.48
40612;BME280;26317;44.894;20.286;2023-03-04T13:17:39;100700.22;;;12.32;60.56
40612;BME280;26317;44.894;20.286;2023-03-04T13:28:15;100698.53;;;11.97;59.39
40612;BME280;26317;44.894;20.286;2023-03-04T13:31:59;100685.19;;;11.77;59.78
40612;BME280;26317;44.894;20.286;2023-03-04T13:34:51;100687.00;;;11.86;61.31
40612;BME280;26317;44.894;20.286;2023-03-04T13:37:55;100684.84;;;11.88;62.16
40612;BME280;26317;44.894;20.286;2023-03-04T13:40:43;100679.47;;;11.88;63.83
40612;BME280;26317;44.894;20.286;2023-03-04T13:43:41;100680.88;;;11.81;62.56
40612;BME280;26317;44.894;20.286;2023-03-04T13:46:59;100675.19;;;11.82;64.30
40612;BME280;26317;44.894;20.286;2023-03-04T13:49:55;100666.59;;;11.85;64.03
40612;BME280;26317;44.894;20.286;2023-03-04T13:53:52;100667.69;;;11.79;63.78
40612;BME280;26317;44.894;20.286;2023-03-04T13:56:30;100664.47;;;11.77;64.26
40612;BME280;26317;44.894;20.286;2023-03-04T13:59:40;100649.69;;;11.70;63.85
40612;BME280;26317;44.894;20.286;2023-03-04T14:02:15;100660.44;;;11.75;64.02
40612;BME280;26317;44.894;20.286;2023-03-04T14:04:58;100659.38;;;11.76;64.53
40612;BME280;26317;44.894;20.286;2023-03-04T14:07:36;100645.94;;;11.76;65.21
40612;BME280;26317;44.894;20.286;2023-03-04T14:10:22;100650.47;;;11.85;65.18
40612;BME280;26317;44.894;20.286;2023-03-04T14:13:03;100644.28;;;11.85;63.17
40612;BME280;26317;44.894;20.286;2023-03-04T14:15:54;100652.06;;;11.86;62.72
40612;BME280;26317;44.894;20.286;2023-03-04T14:18:30;100634.31;;;11.90;64.60
40612;BME280;26317;44.894;20.286;2023-03-04T14:21:13;100638.34;;;11.93;63.55
40612;BME280;26317;44.894;20.286;2023-03-04T14:24:04;100632.72;;;11.89;61.61
40612;BME280;26317;44.894;20.286;2023-03-04T14:26:48;100630.56;;;11.86;62.16
40612;BME280;26317;44.894;20.286;2023-03-04T14:29:31;100631.09;;;11.93;64.93
40612;BME280;26317;44.894;20.286;2023-03-04T14:32:18;100634.53;;;11.94;66.22
40612;BME280;26317;44.894;20.286;2023-03-04T14:34:54;100631.09;;;11.93;64.56